Time;durP1;ratioP1;P1;durP2;ratioP2;P2;SDS_P1;SDS_P2;PMS_P1;PMS_P2;Temp;Humidity;BMP_temperature;BMP_pressure;BME280_temperature;BME280_humidity;BME280_pressure;Samples;Min_cycle;Max_cycle;Signal;HPM_P1;HPM_P2
2021/10/11 00:01:28;;;;;;;2.20;2.05;;;10.60;99.90;;;;;;5058920;28;20218;-81
2021/10/11 00:03:55;;;;;;;0.50;0.50;;;10.50;99.90;;;;;;5059783;28;20643;-81
2021/10/11 00:06:22;;;;;;;0.73;0.73;;;10.50;99.90;;;;;;5059153;28;20581;-80
2021/10/11 00:08:49;;;;;;;6.43;2.60;;;10.40;99.90;;;;;;5059094;28;20203;-82
2021/10/11 00:11:17;;;;;;;0.50;0.40;;;10.50;99.90;;;;;;5058740;28;20204;-81
2021/10/11 00:13:43;;;;;;;3.35;2.15;;;10.50;99.90;;;;;;5058669;28;20196;-81
2021/10/11 00:16:12;;;;;;;7.05;2.38;;;10.60;99.90;;;;;;5059561;28;20201;-81
2021/10/11 00:18:38;;;;;;;0.95;0.95;;;10.60;99.90;;;;;;5058731;28;20229;-81
2021/10/11 00:21:05;;;;;;;17.95;5.88;;;10.70;99.90;;;;;;5058964;28;20201;-82
2021/10/11 00:23:32;;;;;;;9.02;3.20;;;10.80;99.90;;;;;;5058332;28;20549;-80
2021/10/11 00:25:59;;;;;;;1.23;1.23;;;10.80;99.90;;;;;;5058951;28;20207;-81
2021/10/11 00:28:27;;;;;;;4.25;4.00;;;10.80;99.90;;;;;;5058913;28;20215;-81
2021/10/11 00:30:53;;;;;;;0.60;0.50;;;10.80;99.90;;;;;;5058660;28;20596;-80
2021/10/11 00:33:20;;;;;;;5.07;3.88;;;10.90;99.90;;;;;;5058621;28;20203;-79
2021/10/11 00:35:47;;;;;;;5.03;3.05;;;11.00;99.90;;;;;;5058688;28;20230;-81
2021/10/11 00:38:14;;;;;;;0.50;0.40;;;11.00;99.90;;;;;;5059191;28;20195;-81
2021/10/11 00:40:40;;;;;;;0.50;0.40;;;11.00;99.90;;;;;;5058963;28;20200;-81
2021/10/11 00:43:07;;;;;;;0.50;0.40;;;11.00;99.90;;;;;;5059209;28;20217;-80
2021/10/11 00:45:36;;;;;;;13.15;12.25;;;11.10;99.90;;;;;;5058762;28;20216;-80
2021/10/11 00:48:02;;;;;;;2.97;2.72;;;11.10;99.90;;;;;;5059308;28;20200;-81
2021/10/11 00:50:29;;;;;;;0.60;0.43;;;11.10;99.90;;;;;;5058842;28;20199;-80
2021/10/11 00:52:57;;;;;;;0.50;0.40;;;11.10;99.90;;;;;;5059064;28;20203;-80
2021/10/11 00:55:25;;;;;;;0.52;0.50;;;11.10;99.90;;;;;;5059035;28;20220;-81
2021/10/11 00:57:51;;;;;;;0.50;0.50;;;11.10;99.90;;;;;;5059586;28;20199;-81
2021/10/11 01:00:19;;;;;;;2.25;1.73;;;11.10;99.90;;;;;;5058146;28;20597;-81
2021/10/11 01:02:47;;;;;;;0.93;0.82;;;11.20;99.90;;;;;;5058876;28;20208;-80
2021/10/11 01:05:14;;;;;;;0.70;0.40;;;11.20;99.90;;;;;;5058301;28;20562;-81
2021/10/11 01:07:41;;;;;;;0.82;0.82;;;11.20;99.90;;;;;;5058422;28;20191;-81
2021/10/11 01:10:08;;;;;;;1.48;1.48;;;11.20;99.90;;;;;;5058761;28;20550;-80
2021/10/11 01:12:35;;;;;;;0.90;0.90;;;11.20;99.90;;;;;;5058427;28;20198;-80
2021/10/11 01:15:01;;;;;;;4.78;4.32;;;11.30;99.90;;;;;;5057806;28;20221;-81
2021/10/11 01:17:28;;;;;;;0.50;0.40;;;11.30;99.90;;;;;;5058412;28;20194;-81
2021/10/11 01:19:57;;;;;;;1.25;1.15;;;11.30;99.90;;;;;;5058303;28;20192;-80
2021/10/11 01:22:34;;;;;;;2.65;1.60;;;11.30;99.90;;;;;;5058428;28;20213;-82
2021/10/11 01:25:00;;;;;;;3.90;3.67;;;11.30;99.90;;;;;;5058650;28;20234;-81
2021/10/11 01:27:28;;;;;;;0.63;0.60;;;11.30;99.90;;;;;;5059249;28;20205;-81
2021/10/11 01:29:55;;;;;;;0.50;0.40;;;11.30;99.90;;;;;;5059016;28;20197;-81
2021/10/11 01:32:23;;;;;;;0.60;0.60;;;11.40;99.90;;;;;;5057996;28;20187;-81
2021/10/11 01:34:51;;;;;;;0.50;0.40;;;11.40;99.90;;;;;;5057760;28;20255;-81
2021/10/11 01:37:19;;;;;;;0.50;0.40;;;11.30;99.90;;;;;;5095937;22;20225;-79
2021/10/11 01:39:46;;;;;;;0.57;0.57;;;11.30;99.90;;;;;;5082440;28;20206;-79
2021/10/11 01:42:13;;;;;;;0.50;0.50;;;11.30;99.90;;;;;;5080917;28;20223;-78
2021/10/11 01:44:40;;;;;;;1.08;0.85;;;11.30;99.90;;;;;;5080403;28;20195;-78
2021/10/11 01:47:07;;;;;;;0.50;0.40;;;11.30;99.90;;;;;;5081343;28;20223;-79
2021/10/11 01:49:34;;;;;;;0.50;0.40;;;11.30;99.90;;;;;;5082043;28;20200;-79
2021/10/11 01:52:01;;;;;;;0.50;0.40;;;11.30;99.90;;;;;;5080391;28;20188;-80
2021/10/11 01:54:29;;;;;;;0.50;0.40;;;11.30;99.90;;;;;;5080841;28;20567;-78
2021/10/11 01:56:56;;;;;;;0.98;0.98;;;11.40;99.90;;;;;;5080492;28;20628;-79
2021/10/11 01:59:22;;;;;;;1.40;0.85;;;11.30;99.90;;;;;;5079580;28;20201;-78
2021/10/11 02:01:49;;;;;;;0.50;0.40;;;11.30;99.90;;;;;;5080320;28;20205;-78
2021/10/11 02:04:16;;;;;;;1.15;1.05;;;11.30;99.90;;;;;;5080580;28;20207;-79
2021/10/11 02:06:43;;;;;;;0.93;0.93;;;11.30;99.90;;;;;;5079857;28;20222;-79
2021/10/11 02:09:09;;;;;;;1.05;0.98;;;11.30;99.90;;;;;;5079872;28;20204;-78
2021/10/11 02:11:38;;;;;;;2.15;2.05;;;11.30;99.90;;;;;;5079529;28;20199;-78
2021/10/11 02:14:04;;;;;;;0.50;0.50;;;11.30;99.90;;;;;;5078272;28;20192;-78
2021/10/11 02:16:31;;;;;;;0.60;0.60;;;11.30;99.90;;;;;;5077910;28;20217;-78
2021/10/11 02:18:58;;;;;;;0.73;0.60;;;11.30;99.90;;;;;;5079422;28;20194;-78
2021/10/11 02:21:25;;;;;;;0.50;0.40;;;11.30;99.90;;;;;;5077617;28;20292;-79
2021/10/11 02:23:52;;;;;;;0.50;0.40;;;11.30;99.90;;;;;;5077625;28;20219;-79
2021/10/11 02:26:18;;;;;;;0.70;0.60;;;11.30;99.90;;;;;;5079238;28;20212;-79
2021/10/11 02:28:46;;;;;;;1.17;1.17;;;11.40;99.90;;;;;;5077741;28;20203;-78
2021/10/11 02:31:13;;;;;;;0.50;0.40;;;11.40;99.90;;;;;;5077900;28;20202;-81
2021/10/11 02:33:40;;;;;;;2.55;1.67;;;11.50;99.90;;;;;;5083703;28;20645;-80
2021/10/11 02:36:07;;;;;;;0.50;0.40;;;11.50;99.90;;;;;;5079595;28;20227;-80
2021/10/11 02:38:33;;;;;;;0.50;0.40;;;11.50;99.90;;;;;;5079653;28;20183;-81
2021/10/11 02:41:00;;;;;;;2.58;2.38;;;11.60;99.90;;;;;;5080215;28;20270;-80
2021/10/11 02:43:27;;;;;;;0.50;0.40;;;11.60;99.90;;;;;;5079729;28;20216;-80
2021/10/11 02:45:55;;;;;;;0.50;0.40;;;11.60;99.90;;;;;;5080125;28;20448;-79
2021/10/11 02:48:22;;;;;;;0.50;0.40;;;11.60;99.90;;;;;;5080420;28;20193;-81
2021/10/11 02:50:49;;;;;;;0.50;0.40;;;11.60;99.90;;;;;;5079020;28;20231;-81
2021/10/11 02:53:15;;;;;;;0.50;0.40;;;11.70;99.90;;;;;;5079459;28;20200;-81
2021/10/11 02:55:42;;;;;;;0.50;0.40;;;11.70;99.90;;;;;;5079143;28;20185;-80
2021/10/11 02:58:09;;;;;;;0.50;0.40;;;11.70;99.90;;;;;;5079408;28;20209;-80
2021/10/11 03:00:36;;;;;;;0.50;0.40;;;11.70;99.90;;;;;;5077489;28;20196;-83
2021/10/11 03:03:04;;;;;;;0.60;0.40;;;11.80;99.90;;;;;;5078679;28;20219;-81
2021/10/11 03:05:31;;;;;;;0.50;0.40;;;11.80;99.90;;;;;;5078450;28;20226;-81
2021/10/11 03:07:58;;;;;;;1.77;1.67;;;11.80;99.90;;;;;;5078295;28;20227;-81
2021/10/11 03:10:24;;;;;;;0.60;0.40;;;11.80;99.90;;;;;;5078165;28;20200;-81
2021/10/11 03:12:51;;;;;;;0.50;0.40;;;11.80;99.90;;;;;;5078360;28;20190;-80
2021/10/11 03:15:18;;;;;;;0.50;0.40;;;11.90;99.90;;;;;;5078159;28;20208;-79
2021/10/11 03:17:45;;;;;;;0.50;0.40;;;11.90;99.90;;;;;;5078975;28;20216;-79
2021/10/11 03:20:13;;;;;;;0.50;0.40;;;11.80;99.90;;;;;;5077626;28;20191;-80
2021/10/11 03:22:39;;;;;;;1.25;1.25;;;11.90;99.90;;;;;;5077841;28;20209;-81
2021/10/11 03:25:07;;;;;;;0.50;0.40;;;11.90;99.90;;;;;;5081640;28;20197;-82
2021/10/11 03:27:34;;;;;;;0.50;0.40;;;11.90;99.90;;;;;;5082086;28;20248;-78
2021/10/11 03:30:00;;;;;;;0.50;0.40;;;11.90;99.90;;;;;;5082415;28;20192;-80
2021/10/11 03:32:27;;;;;;;0.50;0.40;;;11.90;99.90;;;;;;5083063;28;20197;-80
2021/10/11 03:34:54;;;;;;;0.50;0.40;;;11.90;99.90;;;;;;5082988;28;20563;-79
2021/10/11 03:37:22;;;;;;;0.50;0.40;;;11.90;99.90;;;;;;5082072;28;20225;-80
2021/10/11 03:39:49;;;;;;;0.50;0.40;;;11.90;99.90;;;;;;5082511;28;20202;-81
2021/10/11 03:42:15;;;;;;;0.50;0.40;;;11.90;99.90;;;;;;5081871;28;20200;-80
2021/10/11 03:44:42;;;;;;;0.50;0.40;;;11.90;99.90;;;;;;5082631;28;20202;-80
2021/10/11 03:47:09;;;;;;;0.50;0.40;;;11.90;99.90;;;;;;5083020;28;20218;-80
2021/10/11 03:49:36;;;;;;;0.50;0.40;;;11.90;99.90;;;;;;5083020;28;20212;-80
2021/10/11 03:52:02;;;;;;;0.50;0.40;;;11.90;99.90;;;;;;5081860;28;20196;-80
2021/10/11 03:54:30;;;;;;;0.50;0.40;;;11.90;99.90;;;;;;5082547;28;20204;-80
2021/10/11 03:56:57;;;;;;;0.50;0.40;;;11.90;99.90;;;;;;5081568;28;20223;-80
2021/10/11 03:59:24;;;;;;;0.50;0.40;;;11.90;99.90;;;;;;5081351;28;20201;-80
2021/10/11 04:01:51;;;;;;;0.50;0.40;;;11.90;99.90;;;;;;5081050;28;20204;-79
2021/10/11 04:04:18;;;;;;;0.50;0.40;;;11.90;99.90;;;;;;5081800;28;20221;-80
2021/10/11 04:06:45;;;;;;;0.50;0.40;;;12.00;99.90;;;;;;5081612;28;20221;-80
2021/10/11 04:09:13;;;;;;;0.50;0.40;;;11.90;99.90;;;;;;5081800;28;20258;-80
2021/10/11 04:11:41;;;;;;;0.50;0.40;;;11.90;99.90;;;;;;5080950;28;21016;-80
2021/10/11 04:14:08;;;;;;;0.50;0.40;;;11.80;99.90;;;;;;5081149;28;20194;-80
2021/10/11 04:16:35;;;;;;;0.50;0.40;;;11.70;99.90;;;;;;5081151;28;20727;-81
2021/10/11 04:19:02;;;;;;;0.60;0.40;;;11.70;99.90;;;;;;5081861;28;20194;-80
2021/10/11 04:21:29;;;;;;;0.50;0.40;;;11.60;99.90;;;;;;5080741;28;20196;-81
2021/10/11 04:23:56;;;;;;;0.50;0.40;;;11.70;99.90;;;;;;5081698;28;20213;-80
2021/10/11 04:26:23;;;;;;;0.50;0.40;;;11.70;99.90;;;;;;5081783;28;20691;-80
2021/10/11 04:28:51;;;;;;;0.50;0.40;;;11.70;99.90;;;;;;5080360;28;20201;-79
2021/10/11 04:31:17;;;;;;;0.50;0.40;;;11.70;99.90;;;;;;5081902;28;20198;-80
2021/10/11 04:33:44;;;;;;;1.40;1.30;;;11.80;99.90;;;;;;5082433;28;20195;-80
2021/10/11 04:36:11;;;;;;;0.50;0.40;;;11.80;99.90;;;;;;5080960;28;20228;-80
2021/10/11 04:38:38;;;;;;;0.50;0.40;;;11.80;99.90;;;;;;5081866;28;20199;-80
2021/10/11 04:41:05;;;;;;;1.05;1.05;;;11.90;99.90;;;;;;5081150;28;20203;-79
2021/10/11 04:43:31;;;;;;;13.30;12.60;;;11.90;99.90;;;;;;5082059;28;20685;-80
2021/10/11 04:45:59;;;;;;;0.50;0.40;;;12.00;99.90;;;;;;5081759;28;20709;-78
2021/10/11 04:48:26;;;;;;;0.50;0.40;;;12.00;99.90;;;;;;5081362;28;20573;-80
2021/10/11 04:50:53;;;;;;;0.50;0.40;;;12.00;99.90;;;;;;5081598;28;20201;-80
2021/10/11 04:53:20;;;;;;;0.50;0.40;;;12.00;99.90;;;;;;5081343;28;20203;-80
2021/10/11 04:55:46;;;;;;;0.50;0.40;;;12.00;99.90;;;;;;5082113;28;20207;-80
2021/10/11 04:58:13;;;;;;;0.55;0.40;;;12.00;99.90;;;;;;5081226;28;20203;-79
2021/10/11 05:00:40;;;;;;;0.50;0.40;;;12.00;99.90;;;;;;5080597;28;20198;-79
2021/10/11 05:03:08;;;;;;;0.77;0.77;;;12.00;99.90;;;;;;5080508;28;20275;-79
2021/10/11 05:05:35;;;;;;;0.50;0.40;;;11.90;99.90;;;;;;5080149;28;20201;-79
2021/10/11 05:08:02;;;;;;;0.50;0.40;;;11.90;99.90;;;;;;5079637;28;20210;-79
2021/10/11 05:10:29;;;;;;;0.50;0.38;;;11.90;99.90;;;;;;5080087;28;20201;-78
2021/10/11 05:12:56;;;;;;;0.50;0.40;;;11.90;99.90;;;;;;5080004;28;20197;-79
2021/10/11 05:15:23;;;;;;;0.50;0.40;;;11.90;99.90;;;;;;5079943;28;20669;-79
2021/10/11 05:17:50;;;;;;;0.50;0.40;;;11.90;99.90;;;;;;5079594;28;20231;-79
2021/10/11 05:20:18;;;;;;;0.50;0.38;;;11.80;99.90;;;;;;5079575;28;20206;-78
2021/10/11 05:22:45;;;;;;;0.50;0.40;;;11.90;99.90;;;;;;5079198;28;20199;-78
2021/10/11 05:25:12;;;;;;;0.50;0.40;;;11.90;99.90;;;;;;5079631;28;20201;-78
2021/10/11 05:27:39;;;;;;;0.50;0.40;;;11.90;99.90;;;;;;5080056;28;20227;-78
2021/10/11 05:30:07;;;;;;;0.50;0.40;;;11.90;99.90;;;;;;5079336;28;20206;-79
2021/10/11 05:32:34;;;;;;;0.50;0.40;;;11.80;99.90;;;;;;5079631;28;20230;-79
2021/10/11 05:35:01;;;;;;;0.50;0.40;;;11.90;99.90;;;;;;5080351;28;20190;-78
2021/10/11 05:37:30;;;;;;;0.50;0.40;;;11.90;99.90;;;;;;5080409;28;20220;-79
2021/10/11 05:39:57;;;;;;;0.50;0.40;;;11.90;99.90;;;;;;5080674;28;20592;-79
2021/10/11 05:42:24;;;;;;;0.50;0.30;;;11.80;99.90;;;;;;5079686;28;20201;-78
2021/10/11 05:44:51;;;;;;;0.50;0.40;;;11.90;99.90;;;;;;5080005;28;21063;-79
2021/10/11 05:47:18;;;;;;;0.50;0.40;;;11.80;99.90;;;;;;5079457;28;20319;-79
2021/10/11 05:49:44;;;;;;;0.50;0.40;;;11.80;99.90;;;;;;5079709;28;20192;-79
2021/10/11 05:52:11;;;;;;;0.50;0.40;;;11.80;99.90;;;;;;5079338;28;20212;-79
2021/10/11 05:54:39;;;;;;;0.50;0.40;;;11.70;99.90;;;;;;5079777;28;20216;-77
2021/10/11 05:57:06;;;;;;;0.50;0.40;;;11.70;99.90;;;;;;5073420;28;20220;-77
2021/10/11 05:59:33;;;;;;;0.50;0.40;;;11.80;99.90;;;;;;5072864;28;20190;-77
2021/10/11 06:02:00;;;;;;;0.50;0.40;;;11.70;99.90;;;;;;5073797;28;20203;-77
2021/10/11 06:04:27;;;;;;;0.50;0.40;;;11.70;99.90;;;;;;5073123;28;20214;-77
2021/10/11 06:06:53;;;;;;;0.50;0.40;;;11.60;99.90;;;;;;5076324;28;20593;-77
2021/10/11 06:09:20;;;;;;;0.50;0.40;;;11.60;99.90;;;;;;5077103;28;20209;-77
2021/10/11 06:11:49;;;;;;;0.50;0.40;;;11.60;99.90;;;;;;5076252;28;20210;-77
2021/10/11 06:14:17;;;;;;;0.50;0.40;;;11.60;99.90;;;;;;5072745;28;20566;-77
2021/10/11 06:16:44;;;;;;;0.50;0.40;;;11.60;99.90;;;;;;5073028;28;20641;-78
2021/10/11 06:19:11;;;;;;;0.82;0.82;;;11.50;99.90;;;;;;5074004;28;20192;-77
2021/10/11 06:21:38;;;;;;;0.50;0.40;;;11.40;99.90;;;;;;5072860;28;20566;-77
2021/10/11 06:24:05;;;;;;;0.50;0.40;;;11.40;99.90;;;;;;5073119;28;20213;-77
2021/10/11 06:26:32;;;;;;;0.50;0.40;;;11.40;99.90;;;;;;5072748;28;20225;-77
2021/10/11 06:29:00;;;;;;;0.50;0.32;;;11.40;99.90;;;;;;5072457;28;20196;-76
2021/10/11 06:31:27;;;;;;;0.50;0.40;;;11.40;99.90;;;;;;5074945;28;20203;-80
2021/10/11 06:33:54;;;;;;;1.08;1.08;;;11.50;99.90;;;;;;5073955;28;20191;-77
2021/10/11 06:36:20;;;;;;;0.50;0.40;;;11.60;99.90;;;;;;5072896;28;20225;-77
2021/10/11 06:38:47;;;;;;;0.50;0.40;;;11.60;99.90;;;;;;5072838;28;20202;-78
2021/10/11 06:41:14;;;;;;;0.68;0.65;;;11.70;99.90;;;;;;5071859;28;20205;-77
2021/10/11 06:43:41;;;;;;;0.50;0.40;;;11.70;99.90;;;;;;5072685;28;20693;-78
2021/10/11 06:46:09;;;;;;;0.50;0.50;;;11.70;99.90;;;;;;5076175;28;20227;-78
2021/10/11 06:48:36;;;;;;;0.60;0.60;;;11.70;99.90;;;;;;5076368;28;20201;-77
2021/10/11 06:51:03;;;;;;;0.50;0.40;;;11.70;99.90;;;;;;5074732;28;20197;-78
2021/10/11 06:53:29;;;;;;;2.35;2.25;;;11.70;99.90;;;;;;5075049;28;20196;-78
2021/10/11 06:55:56;;;;;;;0.50;0.40;;;11.70;99.90;;;;;;5075564;28;20659;-79
2021/10/11 06:58:23;;;;;;;0.73;0.70;;;11.70;99.90;;;;;;5074619;28;20194;-78
2021/10/11 07:00:51;;;;;;;0.50;0.40;;;11.70;99.90;;;;;;5074310;28;20200;-78
2021/10/11 07:03:23;;;;;;;0.50;0.40;;;11.80;99.90;;;;;;5075177;28;20273;-78
2021/10/11 07:05:50;;;;;;;0.50;0.40;;;11.80;99.90;;;;;;5074743;28;20286;-78
2021/10/11 07:08:17;;;;;;;0.50;0.40;;;11.90;99.90;;;;;;5075141;28;20195;-78
2021/10/11 07:10:44;;;;;;;0.50;0.40;;;12.00;99.90;;;;;;5074081;28;20670;-79
2021/10/11 07:13:10;;;;;;;0.50;0.40;;;12.10;99.90;;;;;;5074869;28;20195;-78
2021/10/11 07:15:37;;;;;;;0.50;0.40;;;12.20;99.90;;;;;;5057242;28;20207;-78
2021/10/11 07:18:04;;;;;;;0.50;0.40;;;12.40;99.90;;;;;;5075749;28;20237;-78
2021/10/11 07:20:32;;;;;;;0.50;0.40;;;12.60;99.90;;;;;;5075144;28;20202;-78
2021/10/11 07:22:59;;;;;;;0.50;0.40;;;12.80;99.90;;;;;;5074864;28;20201;-77
2021/10/11 07:25:26;;;;;;;0.50;0.37;;;13.10;99.90;;;;;;5075291;28;20220;-78
2021/10/11 07:27:53;;;;;;;0.50;0.40;;;13.50;99.90;;;;;;5075965;28;20471;-78
2021/10/11 07:30:19;;;;;;;0.50;0.40;;;13.60;99.90;;;;;;5075262;28;20205;-77
2021/10/11 07:32:46;;;;;;;0.50;0.40;;;13.70;99.90;;;;;;5075201;28;20451;-78
2021/10/11 07:35:13;;;;;;;0.50;0.40;;;13.70;99.90;;;;;;5075063;28;20436;-78
2021/10/11 07:37:41;;;;;;;0.50;0.40;;;13.60;99.90;;;;;;5126409;22;20496;-82
2021/10/11 07:40:09;;;;;;;0.50;0.40;;;13.50;99.90;;;;;;5061637;28;20440;-81
2021/10/11 07:42:36;;;;;;;0.50;0.40;;;13.50;99.90;;;;;;5069543;28;20217;-82
2021/10/11 07:45:03;;;;;;;0.50;0.30;;;13.50;99.90;;;;;;5076704;28;20468;-80
2021/10/11 07:47:30;;;;;;;0.50;0.40;;;13.50;99.90;;;;;;5077080;28;20229;-81
2021/10/11 07:49:57;;;;;;;0.50;0.40;;;13.50;99.90;;;;;;5077478;28;20795;-83
2021/10/11 07:52:24;;;;;;;0.50;0.40;;;13.50;99.90;;;;;;5077775;28;20547;-83
2021/10/11 07:54:52;;;;;;;0.50;0.40;;;13.50;99.90;;;;;;5077751;28;20428;-83
2021/10/11 07:57:18;;;;;;;0.50;0.30;;;13.50;99.90;;;;;;5079017;28;20459;-82
2021/10/11 07:59:45;;;;;;;0.50;0.30;;;13.60;99.90;;;;;;5078110;28;20218;-83
2021/10/11 08:02:12;;;;;;;0.50;0.40;;;13.70;99.90;;;;;;5077883;28;20454;-84
2021/10/11 08:04:39;;;;;;;0.50;0.30;;;13.70;99.90;;;;;;5077542;28;21031;-80
2021/10/11 08:07:05;;;;;;;0.50;0.40;;;13.70;99.90;;;;;;5077545;28;20472;-83
2021/10/11 08:09:32;;;;;;;0.50;0.30;;;13.80;99.90;;;;;;5077836;28;20438;-82
2021/10/11 08:12:00;;;;;;;0.50;0.40;;;13.90;99.90;;;;;;5081297;28;20817;-83
2021/10/11 08:14:27;;;;;;;0.50;0.40;;;14.00;99.90;;;;;;5081935;28;20879;-83
2021/10/11 08:16:54;;;;;;;0.50;0.40;;;14.00;99.90;;;;;;5082331;28;20464;-82
2021/10/11 08:19:20;;;;;;;0.50;0.40;;;14.10;99.90;;;;;;5081907;28;20444;-83
2021/10/11 08:21:47;;;;;;;0.50;0.40;;;14.00;99.90;;;;;;5082055;28;20440;-83
2021/10/11 08:24:15;;;;;;;0.50;0.40;;;14.00;99.90;;;;;;5082257;28;20991;-82
2021/10/11 08:26:42;;;;;;;0.50;0.40;;;13.90;99.90;;;;;;5082540;28;20446;-81
2021/10/11 08:29:10;;;;;;;0.50;0.30;;;13.90;99.90;;;;;;5081820;28;20444;-81
2021/10/11 08:31:37;;;;;;;0.50;0.40;;;13.80;99.90;;;;;;5083290;28;20436;-83
2021/10/11 08:34:04;;;;;;;0.50;0.33;;;13.90;99.90;;;;;;5083775;28;20441;-83
2021/10/11 08:36:31;;;;;;;0.50;0.40;;;13.80;99.90;;;;;;5081251;28;20443;-83
2021/10/11 08:38:58;;;;;;;0.50;0.33;;;13.80;99.90;;;;;;5081636;28;20451;-83
2021/10/11 08:41:25;;;;;;;0.50;0.40;;;13.80;99.90;;;;;;5081389;28;20443;-83
2021/10/11 08:43:52;;;;;;;0.50;0.30;;;13.90;99.90;;;;;;5082257;28;20786;-83
2021/10/11 08:46:20;;;;;;;0.50;0.37;;;13.90;99.90;;;;;;5082285;28;20444;-83
2021/10/11 08:48:47;;;;;;;0.50;0.40;;;13.90;99.90;;;;;;5081771;28;20810;-82
2021/10/11 08:51:14;;;;;;;0.50;0.30;;;14.00;99.90;;;;;;5080912;28;20437;-82
2021/10/11 08:53:41;;;;;;;0.50;0.40;;;13.90;99.90;;;;;;5080991;28;20441;-83
2021/10/11 08:56:11;;;;;;;0.50;0.40;;;13.90;99.90;;;;;;5081476;28;20447;-82
2021/10/11 08:58:45;;;;;;;0.50;0.40;;;13.80;99.90;;;;;;5081193;28;20459;-83
2021/10/11 09:01:12;;;;;;;0.50;0.40;;;13.90;99.90;;;;;;5079826;28;20438;-83
2021/10/11 09:03:40;;;;;;;3.60;3.40;;;13.80;99.90;;;;;;5080989;28;20437;-83
2021/10/11 09:06:09;;;;;;;0.50;0.40;;;13.80;99.90;;;;;;5082168;28;20476;-82
2021/10/11 09:08:37;;;;;;;0.50;0.40;;;13.80;99.90;;;;;;5081112;28;20456;-84
2021/10/11 09:11:05;;;;;;;0.50;0.40;;;13.80;99.90;;;;;;5080816;28;20197;-81
2021/10/11 09:13:33;;;;;;;0.60;0.50;;;13.80;99.90;;;;;;5080506;28;20447;-82
2021/10/11 09:16:04;;;;;;;0.50;0.40;;;13.80;99.90;;;;;;5080607;28;20440;-84
2021/10/11 09:18:32;;;;;;;0.50;0.30;;;13.70;99.90;;;;;;5081247;28;20460;-82
2021/10/11 09:21:00;;;;;;;0.50;0.40;;;13.70;99.90;;;;;;5080453;28;20818;-83
2021/10/11 09:23:30;;;;;;;0.50;0.40;;;13.70;99.90;;;;;;5080744;28;20865;-82
2021/10/11 09:25:57;;;;;;;0.50;0.40;;;13.80;99.90;;;;;;5080392;28;20518;-82
2021/10/11 09:28:25;;;;;;;0.50;0.40;;;13.90;99.90;;;;;;5080372;28;20476;-81
2021/10/11 09:30:52;;;;;;;0.50;0.40;;;14.00;99.90;;;;;;5080970;28;20522;-82
2021/10/11 09:33:21;;;;;;;0.50;0.40;;;14.00;99.90;;;;;;5081165;28;20438;-83
2021/10/11 09:35:50;;;;;;;0.50;0.30;;;14.10;99.90;;;;;;5079742;28;20526;-83
2021/10/11 09:38:20;;;;;;;0.50;0.30;;;14.20;99.90;;;;;;5080308;28;20466;-82
2021/10/11 09:40:48;;;;;;;0.50;0.40;;;14.20;99.90;;;;;;5081371;28;20436;-82
2021/10/11 09:43:17;;;;;;;0.50;0.40;;;14.40;99.90;;;;;;5081622;28;20451;-82
2021/10/11 09:45:44;;;;;;;0.50;0.40;;;14.70;99.90;;;;;;5080290;28;21019;-81
2021/10/11 09:48:11;;;;;;;0.50;0.33;;;14.90;99.90;;;;;;5080835;28;20981;-83
2021/10/11 09:50:38;;;;;;;0.50;0.40;;;15.10;99.90;;;;;;5080141;28;20448;-83
2021/10/11 09:53:06;;;;;;;0.50;0.40;;;15.40;99.90;;;;;;5080583;28;20432;-83
2021/10/11 09:55:37;;;;;;;0.50;0.40;;;15.70;99.90;;;;;;5080718;28;20449;-83
2021/10/11 09:58:04;;;;;;;0.57;0.50;;;16.10;99.90;;;;;;5080837;28;20536;-83
2021/10/11 10:00:31;;;;;;;0.50;0.30;;;16.50;99.90;;;;;;5080006;28;20485;-78
2021/10/11 10:02:58;;;;;;;0.50;0.40;;;16.80;99.90;;;;;;5080829;28;20438;-82
2021/10/11 10:05:28;;;;;;;0.50;0.30;;;17.00;99.90;;;;;;5080973;28;20550;-82
2021/10/11 10:07:57;;;;;;;0.50;0.30;;;17.20;99.90;;;;;;5080856;28;20541;-83
2021/10/11 10:10:26;;;;;;;0.50;0.30;;;17.30;99.90;;;;;;5079398;28;20452;-81
2021/10/11 10:12:55;;;;;;;0.50;0.30;;;17.20;99.90;;;;;;5080403;28;20590;-81
2021/10/11 10:15:31;;;;;;;0.50;0.40;;;17.30;99.90;;;;;;5080892;28;20437;-81
2021/10/11 10:18:02;;;;;;;0.50;0.30;;;17.70;99.90;;;;;;5080579;28;20468;-82
2021/10/11 10:20:29;;;;;;;0.50;0.40;;;18.00;99.90;;;;;;5080128;28;20437;-81
2021/10/11 10:22:56;;;;;;;0.50;0.30;;;18.30;99.90;;;;;;5080489;28;20991;-83
2021/10/11 10:25:23;;;;;;;0.63;0.57;;;19.00;99.90;;;;;;5080106;28;20485;-80
2021/10/11 10:27:54;;;;;;;0.50;0.30;;;19.80;99.90;;;;;;5079033;28;20468;-82
2021/10/11 10:30:23;;;;;;;0.50;0.30;;;20.50;99.90;;;;;;5079629;28;20476;-83
2021/10/11 10:32:55;;;;;;;0.50;0.30;;;20.60;99.90;;;;;;5062690;28;20494;-79
2021/10/11 10:35:22;;;;;;;0.50;0.30;;;20.80;99.90;;;;;;5079873;28;20782;-79
2021/10/11 10:37:49;;;;;;;0.50;0.30;;;20.90;99.90;;;;;;5079111;28;20477;-78
2021/10/11 10:40:18;;;;;;;0.50;0.30;;;21.00;99.90;;;;;;5079119;28;20918;-81
2021/10/11 10:42:46;;;;;;;0.50;0.30;;;21.50;99.90;;;;;;5079286;28;20445;-81
2021/10/11 10:45:19;;;;;;;0.50;0.40;;;22.10;99.90;;;;;;5079169;28;20490;-81
2021/10/11 10:47:49;;;;;;;0.50;0.30;;;22.30;99.90;;;;;;5079131;28;20539;-82
2021/10/11 10:50:19;;;;;;;0.50;0.30;;;22.60;99.90;;;;;;5079769;28;20958;-81
2021/10/11 10:52:48;;;;;;;0.50;0.30;;;22.90;99.90;;;;;;5079216;28;20440;-80
2021/10/11 10:55:15;;;;;;;0.50;0.30;;;22.70;99.90;;;;;;5078280;28;20459;-81
2021/10/11 10:57:43;;;;;;;0.50;0.30;;;22.30;99.90;;;;;;5078640;28;20461;-79
2021/10/11 11:00:16;;;;;;;0.50;0.30;;;21.60;99.90;;;;;;5078538;28;20444;-78
2021/10/11 11:02:45;;;;;;;0.50;0.30;;;21.00;99.90;;;;;;5079190;28;20455;-80
2021/10/11 11:05:14;;;;;;;0.50;0.30;;;20.70;99.90;;;;;;5078978;28;20503;-81
2021/10/11 11:07:43;;;;;;;0.50;0.30;;;20.20;99.90;;;;;;5079482;28;20458;-80
2021/10/11 11:10:14;;;;;;;0.50;0.40;;;20.30;99.90;;;;;;5078434;28;20440;-81
2021/10/11 11:12:44;;;;;;;0.50;0.30;;;21.00;99.90;;;;;;5079133;28;20441;-83
2021/10/11 11:15:22;;;;;;;0.50;0.43;;;21.80;99.90;;;;;;5083970;28;20437;-81
2021/10/11 11:17:49;;;;;;;0.60;0.40;;;22.40;99.90;;;;;;5078708;28;20464;-81
2021/10/11 11:20:20;;;;;;;0.50;0.30;;;22.70;99.90;;;;;;5078456;28;20441;-81
2021/10/11 11:22:47;;;;;;;0.50;0.40;;;22.70;99.90;;;;;;5078552;28;20483;-80
2021/10/11 11:25:15;;;;;;;0.50;0.30;;;22.50;99.90;;;;;;5079264;28;20473;-82
2021/10/11 11:27:44;;;;;;;0.50;0.30;;;22.50;99.90;;;;;;5078415;28;20811;-79
2021/10/11 11:30:13;;;;;;;0.50;0.30;;;22.20;99.90;;;;;;5077203;28;20444;-81
2021/10/11 11:32:46;;;;;;;0.50;0.30;;;22.30;99.90;;;;;;5078732;28;20772;-81
2021/10/11 11:35:20;;;;;;;0.50;0.50;;;22.20;99.90;;;;;;5079181;28;20428;-81
2021/10/11 11:37:48;;;;;;;0.60;0.30;;;21.40;99.90;;;;;;5079007;28;20478;-81
2021/10/11 11:40:17;;;;;;;0.50;0.30;;;20.50;99.90;;;;;;5077663;28;20439;-81
2021/10/11 11:42:45;;;;;;;0.50;0.30;;;19.50;99.90;;;;;;5078712;28;20443;-82
2021/10/11 11:45:12;;;;;;;0.60;0.50;;;19.00;99.90;;;;;;5079480;28;20487;-82
2021/10/11 11:47:39;;;;;;;0.50;0.30;;;18.50;99.90;;;;;;5083228;28;20848;-83
2021/10/11 11:50:16;;;;;;;0.50;0.40;;;18.10;99.90;;;;;;5083167;28;20443;-81
2021/10/11 11:52:48;;;;;;;0.50;0.30;;;18.00;99.90;;;;;;5081199;28;20422;-80
2021/10/11 11:55:15;;;;;;;0.80;0.80;;;17.90;99.90;;;;;;5081539;28;20434;-82
2021/10/11 11:57:43;;;;;;;0.50;0.30;;;17.90;99.90;;;;;;5081944;28;20836;-82
2021/10/11 12:00:12;;;;;;;0.50;0.30;;;18.10;99.90;;;;;;5080228;28;20438;-79
2021/10/11 12:02:42;;;;;;;0.50;0.30;;;19.10;99.90;;;;;;5081838;28;20486;-81
2021/10/11 12:05:10;;;;;;;0.50;0.30;;;19.70;99.90;;;;;;5081765;28;20476;-83
2021/10/11 12:07:40;;;;;;;0.50;0.30;;;19.80;99.90;;;;;;5080916;28;20463;-80
2021/10/11 12:10:09;;;;;;;0.50;0.30;;;19.50;99.90;;;;;;5080625;28;20450;-83
2021/10/11 12:12:37;;;;;;;0.50;0.40;;;19.20;99.90;;;;;;5083201;28;20789;-79
2021/10/11 12:15:04;;;;;;;0.50;0.30;;;18.90;99.90;;;;;;5083830;28;20494;-82
2021/10/11 12:17:33;;;;;;;0.50;0.30;;;18.60;99.90;;;;;;5083967;28;20477;-80
2021/10/11 12:19:59;;;;;;;0.50;0.30;;;18.60;99.90;;;;;;5083028;28;20442;-82
2021/10/11 12:22:30;;;;;;;0.50;0.50;;;18.50;99.90;;;;;;5083953;28;20491;-82
2021/10/11 12:25:04;;;;;;;0.50;0.30;;;18.20;99.90;;;;;;5083336;28;20425;-79
2021/10/11 12:27:32;;;;;;;0.50;0.40;;;18.00;99.90;;;;;;5080568;28;20472;-79
2021/10/11 12:30:01;;;;;;;0.50;0.30;;;18.00;99.90;;;;;;5080601;28;20803;-79
2021/10/11 12:32:30;;;;;;;0.50;0.30;;;18.00;99.90;;;;;;5081089;28;20464;-79
2021/10/11 12:34:58;;;;;;;0.60;0.40;;;17.90;99.90;;;;;;5082047;28;20509;-82
2021/10/11 12:37:25;;;;;;;0.50;0.30;;;18.00;99.90;;;;;;5083342;28;20469;-83
2021/10/11 12:39:53;;;;;;;0.50;0.30;;;18.10;99.90;;;;;;5083087;28;20453;-80
2021/10/11 12:42:21;;;;;;;0.50;0.30;;;18.30;99.90;;;;;;5082834;28;20441;-82
2021/10/11 12:44:54;;;;;;;0.50;0.30;;;18.60;99.90;;;;;;5081250;28;20450;-82
2021/10/11 12:47:26;;;;;;;0.50;0.30;;;19.20;99.90;;;;;;5083100;28;20527;-82